Time;durP1;ratioP1;P1;durP2;ratioP2;P2;SDS_P1;SDS_P2;PMS_P1;PMS_P2;Temp;Humidity;BMP_temperature;BMP_pressure;BME280_temperature;BME280_humidity;BME280_pressure;Samples;Min_cycle;Max_cycle;Signal;HPM_P1;HPM_P2
2021/10/03 00:00:16;;;;;;;5.63;2.38;;;16.30;99.90;;;;;;5012259;28;20779;-68
2021/10/03 00:02:47;;;;;;;5.00;2.75;;;16.30;99.90;;;;;;5012140;28;20076;-69
2021/10/03 00:05:16;;;;;;;5.45;2.97;;;16.30;99.90;;;;;;5008634;28;21043;-71
2021/10/03 00:07:47;;;;;;;7.90;3.40;;;16.30;99.90;;;;;;5007182;28;20730;-69
2021/10/03 00:10:15;;;;;;;5.22;2.85;;;16.30;99.90;;;;;;5006722;28;20057;-68
2021/10/03 00:12:42;;;;;;;5.28;2.63;;;16.30;99.90;;;;;;5007285;28;20069;-69
2021/10/03 00:15:11;;;;;;;6.95;3.22;;;16.30;99.90;;;;;;5005423;28;20128;-68
2021/10/03 00:17:39;;;;;;;6.00;3.10;;;16.30;99.90;;;;;;5006809;28;20107;-68
2021/10/03 00:20:09;;;;;;;5.70;2.90;;;16.30;99.90;;;;;;5008031;28;20088;-70
2021/10/03 00:22:37;;;;;;;6.13;2.80;;;16.30;99.90;;;;;;5006974;28;20045;-69
2021/10/03 00:25:05;;;;;;;6.45;3.05;;;16.30;99.90;;;;;;5006569;28;20141;-68
2021/10/03 00:27:32;;;;;;;7.55;3.42;;;16.30;99.90;;;;;;5009752;28;20096;-68
2021/10/03 00:29:59;;;;;;;6.13;2.75;;;16.20;99.90;;;;;;5010886;28;20143;-69
2021/10/03 00:32:26;;;;;;;7.88;3.17;;;16.20;99.90;;;;;;5009385;28;20104;-68
2021/10/03 00:34:55;;;;;;;5.15;3.22;;;16.20;99.90;;;;;;5007430;28;20096;-70
2021/10/03 00:37:22;;;;;;;6.72;3.10;;;16.10;99.90;;;;;;5009159;28;20077;-68
2021/10/03 00:39:49;;;;;;;5.05;2.80;;;16.10;99.90;;;;;;5009215;28;20392;-69
2021/10/03 00:42:16;;;;;;;5.50;3.03;;;16.00;99.90;;;;;;5008222;28;20134;-71
2021/10/03 00:44:44;;;;;;;5.50;3.08;;;16.00;99.90;;;;;;5007662;28;20517;-69
2021/10/03 00:47:11;;;;;;;5.68;3.25;;;15.90;99.90;;;;;;5009116;28;20049;-68
2021/10/03 00:49:38;;;;;;;9.52;3.60;;;15.80;99.90;;;;;;5008643;28;20556;-69
2021/10/03 00:52:08;;;;;;;6.30;3.30;;;15.80;99.90;;;;;;5009425;28;20081;-69
2021/10/03 00:54:36;;;;;;;6.05;3.33;;;15.80;99.90;;;;;;5007632;28;20136;-69
2021/10/03 00:57:04;;;;;;;8.48;3.75;;;15.70;99.90;;;;;;5008677;28;20085;-69
2021/10/03 00:59:32;;;;;;;9.63;3.72;;;15.70;99.90;;;;;;5006954;28;20510;-70
2021/10/03 01:01:59;;;;;;;6.40;3.67;;;15.60;99.90;;;;;;5007346;28;20054;-68
2021/10/03 01:04:26;;;;;;;5.95;3.22;;;15.60;99.90;;;;;;5013516;28;20077;-68
2021/10/03 01:06:53;;;;;;;9.50;3.22;;;15.60;99.90;;;;;;5010436;28;20188;-71
2021/10/03 01:09:22;;;;;;;6.03;3.35;;;15.60;99.90;;;;;;5011002;28;20108;-68
2021/10/03 01:11:49;;;;;;;6.88;3.45;;;15.60;99.90;;;;;;5010639;28;20055;-69
2021/10/03 01:14:18;;;;;;;7.78;3.72;;;15.50;99.90;;;;;;5009529;28;20084;-70
2021/10/03 01:16:46;;;;;;;6.28;3.10;;;15.50;99.90;;;;;;5010318;28;20461;-68
2021/10/03 01:19:14;;;;;;;5.65;3.22;;;15.50;99.90;;;;;;5013304;28;20148;-68
2021/10/03 01:21:44;;;;;;;7.25;3.60;;;15.40;99.90;;;;;;5010791;28;20056;-70
2021/10/03 01:24:12;;;;;;;7.07;3.75;;;15.40;99.90;;;;;;5010903;28;20049;-71
2021/10/03 01:26:40;;;;;;;6.75;3.17;;;15.40;99.90;;;;;;5010714;28;20441;-70
2021/10/03 01:29:07;;;;;;;9.82;3.90;;;15.30;99.90;;;;;;5013354;28;20068;-69
2021/10/03 01:31:35;;;;;;;7.43;3.45;;;15.30;99.90;;;;;;5011567;28;20046;-69
2021/10/03 01:34:02;;;;;;;8.73;3.35;;;15.30;99.90;;;;;;5009958;28;20091;-69
2021/10/03 01:36:29;;;;;;;7.45;3.65;;;15.30;99.90;;;;;;5009547;28;20085;-69
2021/10/03 01:38:58;;;;;;;10.15;3.33;;;15.20;99.90;;;;;;5010523;28;20133;-69
2021/10/03 01:41:25;;;;;;;7.13;4.05;;;15.20;99.90;;;;;;5009727;28;20057;-69
2021/10/03 01:43:52;;;;;;;7.50;3.97;;;15.20;99.90;;;;;;5009768;28;20084;-69
2021/10/03 01:46:19;;;;;;;8.00;3.70;;;15.20;99.90;;;;;;5009693;28;20049;-70
2021/10/03 01:48:47;;;;;;;6.28;3.55;;;15.20;99.90;;;;;;5009992;28;20502;-68
2021/10/03 01:51:15;;;;;;;10.73;4.13;;;15.10;99.90;;;;;;5010439;28;20049;-69
2021/10/03 01:53:44;;;;;;;8.07;3.47;;;15.20;99.90;;;;;;5010576;28;20493;-69
2021/10/03 01:56:13;;;;;;;7.30;3.85;;;15.20;99.90;;;;;;5009414;28;20328;-69
2021/10/03 01:58:43;;;;;;;7.65;3.88;;;15.10;99.90;;;;;;5010196;28;20045;-69
2021/10/03 02:01:14;;;;;;;6.63;3.60;;;15.10;99.90;;;;;;5009114;28;20046;-69
2021/10/03 02:03:42;;;;;;;7.28;3.90;;;15.10;99.90;;;;;;5009926;28;20160;-70
2021/10/03 02:06:09;;;;;;;8.45;4.03;;;15.10;99.90;;;;;;5008796;28;20107;-69
2021/10/03 02:08:36;;;;;;;5.80;3.70;;;15.10;99.90;;;;;;5010412;28;20085;-71
2021/10/03 02:11:04;;;;;;;10.43;3.83;;;15.10;99.90;;;;;;5010608;28;20049;-68
2021/10/03 02:13:32;;;;;;;7.03;3.65;;;15.10;99.90;;;;;;5010279;28;20053;-69
2021/10/03 02:16:01;;;;;;;6.85;4.20;;;15.10;99.90;;;;;;5010559;28;20472;-69
2021/10/03 02:18:35;;;;;;;8.77;4.47;;;15.10;99.90;;;;;;5009380;28;20517;-69
2021/10/03 02:21:02;;;;;;;7.32;4.20;;;15.10;99.90;;;;;;5010562;28;20041;-68
2021/10/03 02:23:29;;;;;;;10.32;4.03;;;15.20;99.90;;;;;;5009528;28;20323;-69
2021/10/03 02:25:57;;;;;;;8.10;4.35;;;15.20;99.90;;;;;;5008695;28;20129;-69
2021/10/03 02:28:26;;;;;;;15.63;4.55;;;15.20;99.90;;;;;;5008487;28;20411;-69
2021/10/03 02:30:58;;;;;;;10.27;4.97;;;15.20;99.90;;;;;;5008934;28;20089;-69
2021/10/03 02:33:25;;;;;;;8.38;4.78;;;15.20;99.90;;;;;;5008310;28;20088;-69
2021/10/03 02:35:54;;;;;;;9.98;5.65;;;15.30;99.90;;;;;;5008259;28;20081;-69
2021/10/03 02:38:23;;;;;;;10.73;5.18;;;15.30;99.90;;;;;;5008816;28;20049;-71
2021/10/03 02:40:52;;;;;;;9.40;5.20;;;15.30;99.90;;;;;;5009418;28;20080;-70
2021/10/03 02:43:19;;;;;;;9.05;5.13;;;15.30;99.90;;;;;;5008803;28;20041;-69
2021/10/03 02:45:48;;;;;;;8.98;5.55;;;15.30;99.90;;;;;;5008242;28;20098;-71
2021/10/03 02:48:18;;;;;;;9.80;5.53;;;15.30;99.90;;;;;;5008978;28;20462;-70
2021/10/03 02:50:46;;;;;;;11.07;5.30;;;15.30;99.90;;;;;;5008573;28;20467;-70
2021/10/03 02:53:14;;;;;;;9.60;5.30;;;15.40;99.90;;;;;;5009009;28;20042;-69
2021/10/03 02:55:41;;;;;;;11.93;5.47;;;15.40;99.90;;;;;;5007462;28;20572;-69
2021/10/03 02:58:08;;;;;;;9.90;5.20;;;15.40;99.90;;;;;;5008822;28;20182;-69
2021/10/03 03:00:38;;;;;;;9.27;5.45;;;15.40;99.90;;;;;;5007605;28;20624;-71
2021/10/03 03:03:05;;;;;;;9.02;4.97;;;15.40;99.90;;;;;;5008406;28;20064;-69
2021/10/03 03:05:34;;;;;;;10.38;5.05;;;15.30;99.90;;;;;;5007617;28;20041;-70
2021/10/03 03:08:01;;;;;;;11.13;5.22;;;15.30;99.90;;;;;;5008528;28;20061;-69
2021/10/03 03:10:28;;;;;;;9.32;5.20;;;15.30;99.90;;;;;;5008775;28;20092;-69
2021/10/03 03:12:55;;;;;;;11.10;6.32;;;15.30;99.90;;;;;;5008558;28;20054;-69
2021/10/03 03:15:22;;;;;;;10.82;6.15;;;15.30;99.90;;;;;;5009682;28;20171;-70
2021/10/03 03:17:49;;;;;;;11.02;5.55;;;15.30;99.90;;;;;;5011336;28;20083;-69
2021/10/03 03:20:16;;;;;;;8.30;5.07;;;15.20;99.90;;;;;;5011474;28;20398;-71
2021/10/03 03:22:45;;;;;;;9.48;5.82;;;15.40;99.90;;;;;;5011225;28;20085;-68
2021/10/03 03:25:14;;;;;;;11.05;6.28;;;15.40;99.90;;;;;;5010171;28;20045;-69
2021/10/03 03:27:42;;;;;;;9.77;5.93;;;15.40;99.90;;;;;;5011677;28;20387;-70
2021/10/03 03:30:11;;;;;;;13.18;6.40;;;15.50;99.90;;;;;;5011188;28;20136;-69
2021/10/03 03:32:38;;;;;;;11.27;6.68;;;15.50;99.90;;;;;;5011252;28;20146;-69
2021/10/03 03:35:06;;;;;;;10.18;6.00;;;15.50;99.90;;;;;;5010528;28;20092;-69
2021/10/03 03:37:33;;;;;;;10.32;6.20;;;15.60;99.90;;;;;;5010430;28;20053;-71
2021/10/03 03:40:02;;;;;;;12.20;6.00;;;15.50;99.90;;;;;;5010130;28;20164;-71
2021/10/03 03:42:29;;;;;;;11.35;6.20;;;15.50;99.90;;;;;;5010139;28;20053;-69
2021/10/03 03:44:56;;;;;;;12.70;6.80;;;15.50;99.90;;;;;;5010041;28;20053;-71
2021/10/03 03:47:23;;;;;;;10.77;6.22;;;15.50;99.90;;;;;;5010546;28;20095;-69
2021/10/03 03:49:51;;;;;;;11.35;6.80;;;15.50;99.90;;;;;;5011009;28;20088;-69
2021/10/03 03:52:19;;;;;;;10.93;6.53;;;15.60;99.90;;;;;;5010424;28;20410;-69
2021/10/03 03:54:46;;;;;;;10.55;6.43;;;15.60;99.90;;;;;;5010162;28;20414;-69
2021/10/03 03:57:15;;;;;;;10.90;6.60;;;15.60;99.90;;;;;;5009751;28;20060;-71
2021/10/03 03:59:42;;;;;;;10.50;6.45;;;15.50;99.90;;;;;;5009818;28;20137;-69
2021/10/03 04:02:09;;;;;;;12.98;6.63;;;15.50;99.90;;;;;;5010256;28;20792;-69
2021/10/03 04:04:36;;;;;;;10.70;6.55;;;15.60;99.90;;;;;;5010973;28;20540;-69
2021/10/03 04:07:03;;;;;;;12.55;6.65;;;15.60;99.90;;;;;;5010017;28;20049;-70
2021/10/03 04:09:31;;;;;;;10.73;6.35;;;15.50;99.90;;;;;;5009682;28;20154;-71
2021/10/03 04:11:58;;;;;;;9.57;5.93;;;15.50;99.90;;;;;;5010758;28;20072;-69
2021/10/03 04:14:27;;;;;;;10.95;6.28;;;15.50;99.90;;;;;;5010015;28;20461;-68
2021/10/03 04:16:54;;;;;;;11.20;7.10;;;15.50;99.90;;;;;;5009356;28;20136;-68
2021/10/03 04:19:21;;;;;;;11.80;6.15;;;15.50;99.90;;;;;;5010236;28;20092;-71
2021/10/03 04:21:48;;;;;;;13.20;6.88;;;15.50;99.90;;;;;;5009838;28;20152;-69
2021/10/03 04:24:15;;;;;;;12.25;6.43;;;15.60;99.90;;;;;;5009401;28;20084;-72
2021/10/03 04:26:42;;;;;;;11.32;6.55;;;15.60;99.90;;;;;;5008940;28;20054;-69
2021/10/03 04:29:09;;;;;;;10.18;6.05;;;15.60;99.90;;;;;;5010121;28;20138;-69
2021/10/03 04:31:37;;;;;;;11.15;6.57;;;15.60;99.90;;;;;;5009860;28;20057;-70
2021/10/03 04:34:04;;;;;;;10.60;6.45;;;15.60;99.90;;;;;;5010450;28;20103;-69
2021/10/03 04:36:32;;;;;;;12.15;6.95;;;15.60;99.90;;;;;;5009450;28;20067;-69
2021/10/03 04:38:59;;;;;;;12.05;6.13;;;15.60;99.90;;;;;;5014111;28;20045;-69
2021/10/03 04:41:26;;;;;;;11.40;6.43;;;15.50;99.90;;;;;;5014145;28;20064;-69
2021/10/03 04:43:53;;;;;;;13.52;7.13;;;15.60;99.90;;;;;;5014429;28;20099;-70
2021/10/03 04:46:20;;;;;;;10.38;5.97;;;15.60;99.90;;;;;;5012757;28;20156;-70
2021/10/03 04:48:48;;;;;;;9.55;6.43;;;15.60;99.90;;;;;;5014604;28;20042;-69
2021/10/03 04:51:16;;;;;;;13.05;6.40;;;15.50;99.90;;;;;;5014219;28;20513;-69
2021/10/03 04:53:43;;;;;;;11.93;5.93;;;15.60;99.90;;;;;;5013395;28;20046;-69
2021/10/03 04:56:10;;;;;;;12.50;6.38;;;15.60;99.90;;;;;;5012773;28;20136;-69
2021/10/03 04:58:37;;;;;;;10.13;5.80;;;15.60;99.90;;;;;;5013432;28;21103;-71
2021/10/03 05:01:04;;;;;;;10.10;6.03;;;15.60;99.90;;;;;;5013503;28;20087;-69
2021/10/03 05:03:35;;;;;;;10.30;5.57;;;15.50;99.90;;;;;;5013804;28;20497;-69
2021/10/03 05:06:03;;;;;;;12.50;6.22;;;15.50;99.90;;;;;;5013654;28;20076;-69
2021/10/03 05:08:30;;;;;;;12.93;6.43;;;15.50;99.90;;;;;;5013360;28;20506;-68
2021/10/03 05:10:57;;;;;;;10.07;6.20;;;15.50;99.90;;;;;;5012725;28;20154;-70
2021/10/03 05:13:24;;;;;;;10.38;6.30;;;15.50;99.90;;;;;;5013051;28;20143;-69
2021/10/03 05:15:51;;;;;;;10.18;6.00;;;15.50;99.90;;;;;;5013374;28;20076;-71
2021/10/03 05:18:18;;;;;;;12.23;5.90;;;15.50;99.90;;;;;;5016244;28;20461;-69
2021/10/03 05:20:45;;;;;;;11.88;6.40;;;15.60;99.90;;;;;;5017035;28;20077;-69
2021/10/03 05:23:13;;;;;;;11.05;6.00;;;15.50;99.90;;;;;;5016583;28;20964;-69
2021/10/03 05:25:40;;;;;;;10.65;6.30;;;15.50;99.90;;;;;;5015876;28;20072;-69
2021/10/03 05:28:07;;;;;;;11.13;6.15;;;15.50;99.90;;;;;;5016001;28;20081;-69
2021/10/03 05:30:34;;;;;;;10.45;6.05;;;15.60;99.90;;;;;;5016683;28;20115;-69
2021/10/03 05:33:01;;;;;;;9.95;6.00;;;15.60;99.90;;;;;;5016268;28;20593;-69
2021/10/03 05:35:28;;;;;;;10.27;5.65;;;15.60;99.90;;;;;;5015176;28;20089;-69
2021/10/03 05:37:55;;;;;;;13.05;6.22;;;15.60;99.90;;;;;;5015643;28;20150;-69
2021/10/03 05:40:24;;;;;;;11.40;5.93;;;15.60;99.90;;;;;;5015333;28;20049;-70
2021/10/03 05:42:50;;;;;;;9.88;5.82;;;15.70;99.90;;;;;;5015284;28;20085;-69
2021/10/03 05:45:17;;;;;;;11.10;6.35;;;15.70;99.90;;;;;;5014520;28;20100;-69
2021/10/03 05:47:44;;;;;;;10.98;5.43;;;15.80;99.90;;;;;;5015025;28;20085;-68
2021/10/03 05:50:12;;;;;;;13.10;6.78;;;15.80;99.90;;;;;;5015931;28;20076;-71
2021/10/03 05:52:39;;;;;;;10.80;5.68;;;15.80;99.90;;;;;;5014986;28;20572;-69
2021/10/03 05:55:06;;;;;;;11.32;6.32;;;15.80;99.90;;;;;;5013991;28;20135;-71
2021/10/03 05:57:34;;;;;;;12.73;5.95;;;15.80;99.90;;;;;;5015545;28;20144;-68
2021/10/03 06:00:01;;;;;;;9.63;5.47;;;15.80;99.90;;;;;;5014335;28;20120;-71
2021/10/03 06:02:28;;;;;;;11.25;5.57;;;15.80;99.90;;;;;;5015225;28;20053;-70
2021/10/03 06:04:55;;;;;;;9.75;6.28;;;15.80;99.90;;;;;;5015515;28;20045;-69
2021/10/03 06:07:22;;;;;;;9.52;5.65;;;15.90;99.90;;;;;;5014609;28;20219;-69
2021/10/03 06:09:49;;;;;;;9.95;5.18;;;16.00;99.90;;;;;;5014913;28;20545;-71
2021/10/03 06:12:16;;;;;;;9.10;5.47;;;16.00;99.90;;;;;;5014697;28;20919;-71
2021/10/03 06:14:44;;;;;;;9.60;5.55;;;16.00;99.90;;;;;;5014844;28;20132;-71
2021/10/03 06:17:11;;;;;;;10.00;5.82;;;16.10;99.90;;;;;;5013832;28;20092;-70
2021/10/03 06:19:38;;;;;;;9.25;5.57;;;16.00;99.90;;;;;;5013141;28;20045;-71
2021/10/03 06:22:05;;;;;;;12.90;6.38;;;16.10;99.90;;;;;;5014706;28;20596;-70
2021/10/03 06:24:33;;;;;;;10.15;5.78;;;16.10;99.90;;;;;;5014572;28;20049;-69
2021/10/03 06:27:00;;;;;;;11.23;6.32;;;16.20;99.90;;;;;;5013893;28;20143;-69
2021/10/03 06:29:26;;;;;;;11.75;5.80;;;16.20;99.90;;;;;;5015108;28;20111;-69
2021/10/03 06:31:55;;;;;;;11.65;6.10;;;16.30;99.90;;;;;;5013600;28;20127;-70
2021/10/03 06:34:22;;;;;;;10.38;5.80;;;16.30;99.90;;;;;;5014884;28;20463;-69
2021/10/03 06:36:49;;;;;;;8.85;5.53;;;16.30;99.90;;;;;;5014678;28;20533;-70
2021/10/03 06:39:16;;;;;;;10.23;5.82;;;16.40;99.90;;;;;;5015024;28;20053;-69
2021/10/03 06:41:43;;;;;;;11.52;5.63;;;16.40;99.90;;;;;;5014996;28;20050;-71
2021/10/03 06:44:11;;;;;;;11.93;6.60;;;16.50;99.90;;;;;;5014789;28;20164;-69
2021/10/03 06:46:38;;;;;;;9.70;5.95;;;16.50;99.90;;;;;;5013995;28;20569;-70
2021/10/03 06:49:07;;;;;;;10.43;5.53;;;16.50;99.90;;;;;;5014633;28;20080;-69
2021/10/03 06:51:35;;;;;;;9.63;5.68;;;16.60;99.90;;;;;;5014867;28;20083;-69
2021/10/03 06:54:02;;;;;;;10.35;5.45;;;16.60;99.90;;;;;;5014232;28;20041;-71
2021/10/03 06:56:29;;;;;;;10.18;5.57;;;16.60;99.90;;;;;;5013359;28;20053;-69
2021/10/03 06:58:56;;;;;;;12.00;5.25;;;16.70;99.90;;;;;;5014441;28;20517;-69
2021/10/03 07:01:23;;;;;;;8.65;5.13;;;16.70;99.90;;;;;;5013425;28;21075;-69
2021/10/03 07:03:50;;;;;;;9.52;5.10;;;16.80;99.90;;;;;;5012735;28;20080;-69
2021/10/03 07:06:19;;;;;;;10.05;5.25;;;16.80;99.90;;;;;;5008266;28;20057;-69
2021/10/03 07:08:46;;;;;;;11.13;5.88;;;16.80;99.90;;;;;;5010736;28;20502;-68
2021/10/03 07:11:13;;;;;;;11.10;5.18;;;16.90;99.90;;;;;;5010799;28;20057;-69
2021/10/03 07:13:40;;;;;;;12.40;5.32;;;17.00;99.90;;;;;;5010025;28;20115;-69
2021/10/03 07:16:07;;;;;;;12.95;6.05;;;17.00;99.90;;;;;;5010614;28;20146;-69
2021/10/03 07:18:34;;;;;;;10.68;5.57;;;17.10;99.90;;;;;;5011618;28;20077;-69
2021/10/03 07:21:03;;;;;;;11.90;6.35;;;17.10;99.90;;;;;;5009958;28;20647;-69
2021/10/03 07:23:32;;;;;;;9.57;5.20;;;17.30;99.90;;;;;;5010259;28;20057;-71
2021/10/03 07:25:59;;;;;;;13.02;6.20;;;17.40;99.90;;;;;;5011485;28;20148;-69
2021/10/03 07:28:26;;;;;;;9.73;5.30;;;17.50;99.90;;;;;;5011097;28;20140;-69
2021/10/03 07:30:54;;;;;;;9.20;5.30;;;17.50;99.90;;;;;;5012368;28;20092;-69
2021/10/03 07:33:22;;;;;;;8.68;5.00;;;17.60;99.90;;;;;;5013232;28;20137;-70
2021/10/03 07:35:49;;;;;;;13.10;5.53;;;17.60;99.90;;;;;;5010756;28;20072;-70
2021/10/03 07:38:16;;;;;;;10.02;5.60;;;17.50;99.90;;;;;;5010162;28;20128;-68
2021/10/03 07:40:45;;;;;;;9.75;5.60;;;17.50;99.90;;;;;;5010882;28;20137;-69
2021/10/03 07:43:13;;;;;;;10.20;5.05;;;17.60;99.90;;;;;;5008916;28;20139;-69
2021/10/03 07:45:40;;;;;;;10.52;5.75;;;17.70;99.90;;;;;;5011077;28;20132;-69
2021/10/03 07:48:07;;;;;;;11.73;5.88;;;17.80;99.90;;;;;;5010037;28;20085;-71
2021/10/03 07:50:34;;;;;;;8.80;4.90;;;17.80;99.90;;;;;;5008701;28;20132;-70
2021/10/03 07:53:01;;;;;;;8.50;5.35;;;17.90;99.90;;;;;;5009315;28;20111;-70
2021/10/03 07:55:29;;;;;;;11.77;5.75;;;18.00;99.90;;;;;;5012263;28;20075;-71
2021/10/03 07:58:02;;;;;;;10.18;5.47;;;18.20;99.90;;;;;;5013567;28;20835;-71
2021/10/03 08:00:30;;;;;;;10.13;5.75;;;18.20;99.90;;;;;;5012045;28;20116;-69
2021/10/03 08:02:57;;;;;;;11.25;5.20;;;18.30;99.90;;;;;;5014087;28;20053;-69
2021/10/03 08:05:24;;;;;;;9.95;5.20;;;18.40;99.90;;;;;;5012047;28;20131;-70
2021/10/03 08:07:51;;;;;;;9.00;5.45;;;18.50;99.90;;;;;;5013544;28;20171;-69
2021/10/03 08:10:18;;;;;;;11.07;5.72;;;18.60;99.90;;;;;;5013374;28;20076;-70
2021/10/03 08:12:47;;;;;;;11.07;5.28;;;18.60;99.90;;;;;;5011493;28;20792;-70
2021/10/03 08:15:16;;;;;;;9.57;5.32;;;18.50;99.90;;;;;;5011376;28;20057;-69
2021/10/03 08:17:43;;;;;;;10.32;6.07;;;18.60;99.90;;;;;;5011954;28;20052;-71
2021/10/03 08:20:11;;;;;;;10.68;5.53;;;18.70;99.90;;;;;;5011025;28;20427;-69
2021/10/03 08:22:38;;;;;;;10.35;5.10;;;18.70;99.90;;;;;;5012538;28;20136;-69
2021/10/03 08:25:07;;;;;;;11.05;5.47;;;18.80;99.90;;;;;;5011725;28;20088;-69
2021/10/03 08:27:35;;;;;;;9.55;5.40;;;18.90;99.90;;;;;;5012265;28;20099;-71
2021/10/03 08:30:03;;;;;;;10.23;5.35;;;19.00;99.90;;;;;;5010979;28;20517;-69
2021/10/03 08:32:31;;;;;;;10.25;5.30;;;19.20;99.90;;;;;;5010484;28;20112;-69
2021/10/03 08:34:59;;;;;;;8.77;5.50;;;19.30;99.90;;;;;;5012555;28;20094;-71
2021/10/03 08:37:26;;;;;;;8.77;5.30;;;19.40;99.90;;;;;;5011726;28;20057;-70
2021/10/03 08:39:53;;;;;;;9.82;4.82;;;19.40;99.90;;;;;;5012313;28;20463;-69
2021/10/03 08:42:20;;;;;;;9.90;4.80;;;19.20;99.90;;;;;;5011151;28;20505;-71
2021/10/03 08:44:47;;;;;;;9.23;5.20;;;19.10;99.90;;;;;;5010812;28;20131;-69
2021/10/03 08:47:15;;;;;;;8.90;4.68;;;19.00;99.90;;;;;;5010804;28;20096;-69
2021/10/03 08:49:43;;;;;;;8.77;4.60;;;19.00;99.90;;;;;;5012701;28;20409;-70
2021/10/03 08:52:11;;;;;;;7.95;4.57;;;19.10;99.90;;;;;;5012555;28;20406;-69
2021/10/03 08:54:39;;;;;;;8.02;5.05;;;18.90;99.90;;;;;;5013193;28;20049;-69
2021/10/03 08:57:06;;;;;;;8.27;4.60;;;18.90;99.90;;;;;;5012164;28;20591;-69
2021/10/03 08:59:34;;;;;;;7.50;4.60;;;19.20;99.90;;;;;;5012155;28;20524;-69
2021/10/03 09:02:03;;;;;;;7.28;4.80;;;19.30;99.90;;;;;;5011425;28;20093;-70
2021/10/03 09:04:32;;;;;;;10.07;5.50;;;19.30;99.90;;;;;;5010543;28;20065;-69
2021/10/03 09:07:09;;;;;;;8.05;4.80;;;19.50;99.90;;;;;;5008444;28;20053;-72
2021/10/03 09:09:53;;;;;;;;;;;19.80;99.90;;;;;;5009458;28;20165;-69
2021/10/03 09:12:27;;;;;;;10.98;5.20;;;20.40;99.90;;;;;;5008356;28;19956;-70
2021/10/03 09:14:55;;;;;;;11.73;5.70;;;20.70;99.90;;;;;;5008474;28;20127;-69
2021/10/03 09:17:22;;;;;;;10.10;4.82;;;21.50;99.90;;;;;;5007278;28;20087;-72
2021/10/03 09:20:12;;;;;;;8.27;4.75;;;22.30;99.10;;;;;;5008376;28;20049;-69
2021/10/03 09:22:59;;;;;;;8.45;4.68;;;22.60;98.60;;;;;;5007222;28;20532;-69
2021/10/03 09:25:41;;;;;;;9.77;4.30;;;22.30;99.10;;;;;;5012014;28;20148;-71
2021/10/03 09:28:10;;;;;;;8.60;4.40;;;21.40;99.90;;;;;;5012329;28;20136;-69
2021/10/03 09:30:52;;;;;;;9.80;5.20;;;21.60;99.90;;;;;;5011448;28;20136;-70
2021/10/03 09:33:19;;;;;;;7.75;4.78;;;21.60;99.90;;;;;;5012993;28;20615;-69
2021/10/03 09:35:57;;;;;;;10.40;4.78;;;21.30;99.90;;;;;;5010540;28;20140;-69
2021/10/03 09:38:26;;;;;;;7.60;5.07;;;21.10;99.90;;;;;;5013427;28;20049;-69
2021/10/03 09:41:05;;;;;;;8.45;4.70;;;20.90;99.90;;;;;;5011808;28;20176;-70
2021/10/03 09:43:45;;;;;;;8.45;4.78;;;20.80;99.90;;;;;;5012886;28;20053;-69
2021/10/03 09:46:36;;;;;;;8.88;4.85;;;20.90;99.90;;;;;;5011185;28;20088;-70
2021/10/03 09:49:05;;;;;;;7.25;4.63;;;21.10;99.90;;;;;;5012557;28;20486;-71
2021/10/03 09:51:32;;;;;;;8.13;4.78;;;21.20;99.90;;;;;;5012166;28;20049;-71
2021/10/03 09:54:01;;;;;;;7.07;4.22;;;21.40;99.90;;;;;;5011463;28;20472;-69
2021/10/03 09:56:28;;;;;;;7.70;4.68;;;21.60;99.20;;;;;;5011029;28;20629;-72
2021/10/03 09:58:57;;;;;;;9.00;5.20;;;21.40;99.90;;;;;;5011981;28;20052;-70
2021/10/03 10:01:24;;;;;;;7.30;4.60;;;21.60;99.90;;;;;;5011890;28;20152;-70
2021/10/03 10:03:51;;;;;;;10.50;5.20;;;21.70;99.90;;;;;;5013834;28;20049;-71
2021/10/03 10:06:19;;;;;;;8.02;4.82;;;21.90;99.90;;;;;;5013333;28;20148;-69
2021/10/03 10:08:47;;;;;;;9.95;5.32;;;22.40;99.50;;;;;;5017311;28;20452;-69
2021/10/03 10:11:24;;;;;;;8.75;4.97;;;22.50;98.80;;;;;;5016119;28;20525;-69
2021/10/03 10:13:55;;;;;;;7.88;5.00;;;22.30;99.20;;;;;;5011680;28;20145;-70
2021/10/03 10:16:41;;;;;;;8.82;4.75;;;22.60;99.70;;;;;;5011378;28;20053;-70
2021/10/03 10:19:34;;;;;;;9.65;4.45;;;22.40;99.10;;;;;;5013150;28;20056;-72
2021/10/03 10:22:41;;;;;;;9.05;4.15;;;22.40;99.10;;;;;;5014021;28;20503;-69
2021/10/03 10:25:20;;;;;;;8.00;4.95;;;22.60;98.80;;;;;;5011817;28;20541;-68
2021/10/03 10:28:07;;;;;;;8.50;4.68;;;22.80;99.00;;;;;;5013656;28;20057;-71
2021/10/03 10:30:58;;;;;;;8.18;4.28;;;22.50;99.20;;;;;;5015246;28;20481;-69
2021/10/03 10:33:25;;;;;;;11.70;4.53;;;22.60;99.20;;;;;;5015220;28;20419;-70
2021/10/03 10:36:16;;;;;;;7.53;4.55;;;23.00;98.70;;;;;;5011519;28;20460;-69
2021/10/03 10:39:21;;;;;;;7.72;4.00;;;23.10;98.10;;;;;;5014778;28;20049;-72
2021/10/03 10:41:50;;;;;;;7.53;4.50;;;23.50;98.40;;;;;;5012541;28;20579;-70
2021/10/03 10:44:41;;;;;;;8.18;4.43;;;24.40;97.70;;;;;;5013466;28;20077;-72
2021/10/03 10:47:17;;;;;;;7.07;3.70;;;24.70;96.90;;;;;;5012339;28;20633;-71
2021/10/03 10:49:49;;;;;;;7.40;4.43;;;24.10;96.90;;;;;;5017637;28;20045;-70
2021/10/03 10:52:30;;;;;;;7.30;4.18;;;24.80;97.20;;;;;;5014807;28;20077;-72
2021/10/03 10:55:29;;;;;;;7.40;4.20;;;26.30;96.30;;;;;;5013721;28;20049;-70
2021/10/03 10:58:14;;;;;;;7.75;4.45;;;28.50;93.50;;;;;;5012596;28;20060;-70
2021/10/03 11:01:09;;;;;;;7.05;4.53;;;30.40;92.20;;;;;;5014440;28;20049;-70
2021/10/03 11:04:07;;;;;;;8.18;3.92;;;29.50;90.60;;;;;;5001577;28;20041;-70
2021/10/03 11:07:02;;;;;;;7.63;4.57;;;33.10;88.90;;;;;;5012335;28;20053;-71
2021/10/03 11:09:31;;;;;;;7.72;4.00;;;30.70;87.90;;;;;;5016001;28;20057;-72
2021/10/03 11:12:07;;;;;;;6.13;3.90;;;30.50;88.80;;;;;;5014687;28;20135;-72
2021/10/03 11:14:34;;;;;;;8.00;3.83;;;30.30;87.60;;;;;;5013317;28;20156;-72
2021/10/03 11:17:06;;;;;;;6.78;4.28;;;28.00;90.30;;;;;;5012374;28;20153;-71
2021/10/03 11:19:36;;;;;;;6.88;3.92;;;27.90;91.60;;;;;;5012388;28;20568;-71
2021/10/03 11:22:07;;;;;;;9.75;3.45;;;27.30;90.90;;;;;;5016306;28;20150;-70
2021/10/03 11:24:35;;;;;;;9.00;3.90;;;25.40;92.60;;;;;;5012151;28;20510;-70
2021/10/03 11:27:04;;;;;;;7.35;4.00;;;25.00;93.40;;;;;;5013504;28;20428;-71
2021/10/03 11:29:33;;;;;;;7.75;3.80;;;25.10;93.70;;;;;;5012070;28;20084;-71
2021/10/03 11:32:03;;;;;;;6.40;3.88;;;25.20;93.50;;;;;;5014830;28;20682;-72
2021/10/03 11:34:33;;;;;;;6.25;3.80;;;24.60;93.90;;;;;;5008746;28;20132;-71
2021/10/03 11:37:02;;;;;;;7.03;3.97;;;24.80;94.00;;;;;;5010688;28;20100;-71
2021/10/03 11:39:42;;;;;;;8.27;4.22;;;27.00;92.90;;;;;;5012092;28;20060;-71
2021/10/03 11:42:11;;;;;;;6.85;4.13;;;27.10;92.40;;;;;;5012266;28;20524;-70
2021/10/03 11:44:40;;;;;;;5.25;3.10;;;27.60;91.00;;;;;;5012005;28;20505;-71
2021/10/03 11:47:12;;;;;;;6.50;3.85;;;26.00;92.20;;;;;;5011654;28;20168;-71
2021/10/03 11:49:41;;;;;;;6.97;3.60;;;25.60;92.70;;;;;;5017154;28;20533;-69
2021/10/03 11:52:09;;;;;;;6.97;4.15;;;27.10;92.00;;;;;;5015155;28;20454;-69
2021/10/03 11:54:43;;;;;;;7.80;3.40;;;27.30;91.50;;;;;;5013734;28;20404;-70
2021/10/03 11:57:27;;;;;;;6.75;3.90;;;27.50;91.30;;;;;;5011626;28;20098;-69
2021/10/03 12:00:05;;;;;;;6.75;3.67;;;25.40;92.60;;;;;;5010624;28;21079;-71
2021/10/03 12:02:38;;;;;;;5.90;4.00;;;24.80;93.10;;;;;;5011091;28;20050;-70
2021/10/03 12:05:06;;;;;;;7.35;3.55;;;24.90;93.70;;;;;;5008377;28;20474;-70
2021/10/03 12:07:33;;;;;;;6.95;3.72;;;24.50;94.00;;;;;;5008275;28;20431;-71
2021/10/03 12:10:03;;;;;;;6.28;4.00;;;24.60;94.30;;;;;;5009909;28;20053;-71
2021/10/03 12:12:52;;;;;;;6.63;3.83;;;24.20;93.90;;;;;;5007985;28;20565;-72
2021/10/03 12:15:38;;;;;;;6.88;3.95;;;24.10;94.50;;;;;;5007303;28;20132;-70
2021/10/03 12:18:07;;;;;;;8.17;3.73;;;23.80;94.60;;;;;;5008850;28;20135;-70
2021/10/03 12:20:51;;;;;;;7.28;3.42;;;23.80;94.90;;;;;;5014520;28;20162;-70
2021/10/03 12:23:38;;;;;;;7.70;4.03;;;23.60;95.20;;;;;;5015254;28;20110;-70
2021/10/03 12:26:10;;;;;;;9.63;3.88;;;23.60;95.80;;;;;;5012933;28;20057;-70
2021/10/03 12:28:51;;;;;;;7.30;4.22;;;24.40;95.70;;;;;;5011573;28;20489;-70
2021/10/03 12:31:43;;;;;;;7.65;3.60;;;24.10;95.60;;;;;;5015180;28;20058;-69
2021/10/03 12:34:49;;;;;;;8.70;4.05;;;24.20;96.00;;;;;;5011698;28;20096;-70
2021/10/03 12:37:20;;;;;;;8.57;4.40;;;24.00;96.30;;;;;;5012425;28;20049;-72
2021/10/03 12:39:51;;;;;;;6.80;3.53;;;23.80;95.50;;;;;;5012777;28;21549;-71
2021/10/03 12:42:20;;;;;;;8.98;3.97;;;23.60;95.70;;;;;;5013520;28;20084;-70
2021/10/03 12:44:48;;;;;;;6.07;3.58;;;23.50;95.60;;;;;;5011099;28;20107;-70
2021/10/03 12:47:17;;;;;;;7.65;3.88;;;23.50;96.00;;;;;;5007444;28;20049;-71
2021/10/03 12:49:44;;;;;;;7.40;3.35;;;23.60;96.10;;;;;;5001353;28;20462;-69
2021/10/03 12:52:12;;;;;;;7.38;3.75;;;23.80;96.10;;;;;;5002881;28;20054;-70
2021/10/03 12:54:43;;;;;;;7.20;3.97;;;23.90;95.90;;;;;;5007414;28;20049;-70
2021/10/03 12:57:10;;;;;;;8.13;5.20;;;24.20;95.80;;;;;;5005988;28;20057;-70